Time;durP1;ratioP1;P1;durP2;ratioP2;P2;SDS_P1;SDS_P2;PMS_P1;PMS_P2;Temp;Humidity;BMP_temperature;BMP_pressure;BME280_temperature;BME280_humidity;BME280_pressure;Samples;Min_cycle;Max_cycle;Signal;HPM_P1;HPM_P2
2021/12/31 00:02:05;;;;;;;13.93;3.38;;;11.60;99.90;;;;;;4982038;28;20129;-87
2021/12/31 00:04:31;;;;;;;13.90;3.40;;;11.60;99.90;;;;;;5014501;28;20113;-88
2021/12/31 00:06:58;;;;;;;15.02;3.88;;;11.60;99.90;;;;;;4997580;28;20153;-89
2021/12/31 00:09:24;;;;;;;22.30;4.07;;;11.60;99.90;;;;;;4995326;28;20107;-87
2021/12/31 00:11:49;;;;;;;15.95;3.35;;;11.60;99.90;;;;;;4997263;28;20494;-90
2021/12/31 00:14:15;;;;;;;14.02;3.50;;;11.60;99.90;;;;;;4993827;28;20077;-88
2021/12/31 00:16:41;;;;;;;17.50;3.70;;;11.60;99.90;;;;;;4982666;28;20124;-89
2021/12/31 00:19:07;;;;;;;14.18;3.90;;;11.60;99.90;;;;;;4996535;28;20571;-89
2021/12/31 00:21:36;;;;;;;16.60;3.80;;;11.50;99.90;;;;;;4998238;28;20077;-87
2021/12/31 00:24:02;;;;;;;13.90;3.30;;;11.60;99.90;;;;;;4969763;28;20034;-88
2021/12/31 00:26:28;;;;;;;18.67;3.80;;;11.50;99.90;;;;;;4991368;28;20038;-88
2021/12/31 00:28:54;;;;;;;16.00;3.53;;;11.60;99.90;;;;;;5000996;28;20099;-88
2021/12/31 00:31:19;;;;;;;18.35;3.45;;;11.50;99.90;;;;;;5012894;28;20538;-90
2021/12/31 00:33:45;;;;;;;18.08;3.72;;;11.50;99.90;;;;;;4981425;28;20073;-88
2021/12/31 00:36:11;;;;;;;17.00;3.80;;;11.50;99.90;;;;;;4981386;28;20041;-88
2021/12/31 00:38:37;;;;;;;17.70;3.83;;;11.50;99.90;;;;;;4969256;28;20041;-89
2021/12/31 00:41:02;;;;;;;16.55;3.65;;;11.50;99.90;;;;;;4997286;28;20168;-88
2021/12/31 00:43:28;;;;;;;19.83;3.88;;;11.40;99.90;;;;;;4997058;28;20033;-88
2021/12/31 00:45:54;;;;;;;17.52;4.22;;;11.50;99.90;;;;;;4981662;28;20103;-89
2021/12/31 00:48:19;;;;;;;13.90;3.67;;;11.40;99.90;;;;;;4986127;28;20045;-88
2021/12/31 00:50:45;;;;;;;19.88;3.78;;;11.40;99.90;;;;;;4995036;28;20049;-88
2021/12/31 00:53:11;;;;;;;16.83;3.75;;;11.40;99.90;;;;;;4996062;28;20037;-90
2021/12/31 00:55:37;;;;;;;17.40;3.70;;;11.40;99.90;;;;;;4996275;28;20042;-87
2021/12/31 00:58:04;;;;;;;17.90;3.75;;;11.40;99.90;;;;;;4980221;28;20176;-89
2021/12/31 01:00:30;;;;;;;20.15;4.10;;;11.40;99.90;;;;;;5013503;28;20056;-90
2021/12/31 01:02:55;;;;;;;19.58;4.15;;;11.40;99.90;;;;;;4978948;28;20049;-89
2021/12/31 01:05:21;;;;;;;18.63;4.40;;;11.40;99.90;;;;;;4996130;28;20034;-89
2021/12/31 01:07:47;;;;;;;15.25;4.10;;;11.40;99.90;;;;;;5010460;28;20033;-89
2021/12/31 01:10:15;;;;;;;15.95;3.97;;;11.30;99.90;;;;;;4999501;28;20053;-88
2021/12/31 01:12:41;;;;;;;16.90;4.15;;;11.30;99.90;;;;;;4997807;28;20548;-88
2021/12/31 01:15:19;;;;;;;16.00;3.28;;;11.40;99.90;;;;;;4998532;28;20037;-89
2021/12/31 01:18:13;;;;;;;17.13;3.80;;;11.30;99.90;;;;;;5013956;28;20038;-89
2021/12/31 01:20:33;;;;;;;13.75;3.58;;;11.30;99.90;;;;;;5012151;28;20119;-90
2021/12/31 01:22:59;;;;;;;16.67;3.75;;;11.20;99.90;;;;;;4981128;28;20487;-90
2021/12/31 01:25:25;;;;;;;17.67;3.50;;;11.40;99.90;;;;;;4969167;28;20066;-89
2021/12/31 01:27:51;;;;;;;17.35;3.80;;;11.20;99.90;;;;;;4991570;28;20076;-89
2021/12/31 01:30:16;;;;;;;16.58;3.45;;;11.40;99.90;;;;;;4996074;28;20042;-88
2021/12/31 01:32:44;;;;;;;17.00;3.85;;;11.30;99.90;;;;;;4997271;28;20068;-88
2021/12/31 01:35:10;;;;;;;14.80;3.30;;;11.50;99.90;;;;;;4995822;28;20073;-89
2021/12/31 01:37:36;;;;;;;14.82;3.70;;;11.30;99.90;;;;;;4998734;28;20036;-89
2021/12/31 01:40:02;;;;;;;16.95;3.78;;;11.30;99.90;;;;;;4989691;28;20045;-89
2021/12/31 01:42:32;;;;;;;14.10;3.60;;;11.30;99.90;;;;;;4994853;28;20037;-89
2021/12/31 01:45:14;;;;;;;16.42;3.92;;;11.20;99.90;;;;;;5028480;28;20049;-88
2021/12/31 01:50:13;;;;;;;14.15;3.55;;;11.30;99.90;;;;;;5012176;28;20663;-89
2021/12/31 01:52:42;;;;;;;17.17;3.67;;;11.30;99.90;;;;;;5007599;28;20029;-89
2021/12/31 01:55:12;;;;;;;17.92;3.70;;;11.30;99.90;;;;;;4979199;28;20618;-88
2021/12/31 01:57:42;;;;;;;18.70;3.28;;;11.40;99.90;;;;;;5012780;28;20041;-89
2021/12/31 02:00:10;;;;;;;16.73;3.33;;;11.30;99.90;;;;;;4983511;28;20044;-89
2021/12/31 02:02:36;;;;;;;16.13;3.60;;;11.30;99.90;;;;;;5008963;28;20034;-90
2021/12/31 02:05:03;;;;;;;18.27;3.25;;;11.30;99.90;;;;;;5005768;28;20063;-88
2021/12/31 02:07:30;;;;;;;16.35;3.30;;;11.40;99.90;;;;;;4995976;28;20037;-89
2021/12/31 02:09:56;;;;;;;13.32;3.58;;;11.40;99.90;;;;;;4996135;28;20041;-89
2021/12/31 02:12:22;;;;;;;19.20;3.53;;;11.30;99.90;;;;;;5012757;28;20125;-89
2021/12/31 02:14:51;;;;;;;15.60;3.72;;;11.50;99.90;;;;;;4995317;28;20033;-88
2021/12/31 02:17:17;;;;;;;15.13;4.13;;;11.60;99.90;;;;;;5013308;28;20041;-89
2021/12/31 02:20:05;;;;;;;18.38;3.58;;;11.40;99.90;;;;;;4999973;28;20057;-87
2021/12/31 02:22:33;;;;;;;15.02;3.22;;;11.40;99.90;;;;;;5006216;28;20042;-88
2021/12/31 02:25:00;;;;;;;17.02;3.50;;;11.40;99.90;;;;;;4997764;28;20038;-89
2021/12/31 02:27:27;;;;;;;20.27;4.22;;;11.40;99.90;;;;;;5016994;28;20092;-88
2021/12/31 02:29:53;;;;;;;15.63;3.08;;;11.40;99.90;;;;;;4995630;28;20039;-88
2021/12/31 02:32:19;;;;;;;19.48;3.97;;;11.40;99.90;;;;;;4995744;28;20113;-89
2021/12/31 02:34:46;;;;;;;17.10;3.83;;;11.40;99.90;;;;;;4982551;28;20505;-89
2021/12/31 02:37:12;;;;;;;12.32;3.50;;;11.50;99.90;;;;;;5014743;28;20147;-88
2021/12/31 02:39:41;;;;;;;18.60;4.07;;;11.50;99.90;;;;;;4999597;28;20049;-88
2021/12/31 02:42:08;;;;;;;14.23;3.63;;;11.50;99.90;;;;;;4999862;28;20061;-88
2021/12/31 02:44:35;;;;;;;18.83;4.28;;;11.50;99.90;;;;;;4997471;28;20754;-87
2021/12/31 02:47:03;;;;;;;14.40;3.63;;;11.50;99.90;;;;;;4968300;28;20629;-90
2021/12/31 02:49:34;;;;;;;15.68;3.90;;;12.40;99.90;;;;;;5010096;28;20116;-87
2021/12/31 02:52:02;;;;;;;17.42;3.63;;;11.50;99.90;;;;;;4991169;28;20038;-88
2021/12/31 02:54:30;;;;;;;15.88;3.75;;;11.60;99.90;;;;;;4996061;28;20628;-88
2021/12/31 02:56:56;;;;;;;13.93;3.83;;;11.60;99.90;;;;;;5015815;28;20107;-89
2021/12/31 02:59:22;;;;;;;14.23;3.53;;;11.90;99.90;;;;;;4985701;28;20042;-89
2021/12/31 03:01:49;;;;;;;12.18;3.40;;;11.70;99.90;;;;;;4993162;28;20072;-88
2021/12/31 03:04:17;;;;;;;13.63;3.40;;;12.40;99.90;;;;;;4999552;28;20037;-87
2021/12/31 03:06:46;;;;;;;13.18;3.20;;;11.70;99.90;;;;;;4986622;28;20033;-89
2021/12/31 03:09:14;;;;;;;14.52;2.97;;;11.70;99.90;;;;;;5005625;28;20033;-89
2021/12/31 03:11:42;;;;;;;13.85;3.53;;;11.80;99.90;;;;;;5003861;28;20103;-89
2021/12/31 03:14:09;;;;;;;14.68;3.20;;;11.80;99.90;;;;;;5022319;28;20034;-89
2021/12/31 03:16:35;;;;;;;12.43;2.80;;;11.70;99.90;;;;;;4982772;28;20060;-89
2021/12/31 03:19:02;;;;;;;16.65;3.15;;;11.80;99.90;;;;;;4998894;28;20045;-89
2021/12/31 03:21:30;;;;;;;11.75;3.25;;;11.70;99.90;;;;;;5015187;28;20107;-88
2021/12/31 03:23:58;;;;;;;12.20;3.13;;;11.70;99.90;;;;;;4998198;28;20061;-88
2021/12/31 03:26:23;;;;;;;12.95;3.25;;;12.80;99.90;;;;;;5012371;28;20113;-88
2021/12/31 03:28:50;;;;;;;10.65;3.20;;;11.70;99.90;;;;;;4985625;28;20515;-88
2021/12/31 03:31:16;;;;;;;12.05;3.13;;;12.10;99.90;;;;;;4974415;28;20049;-88
2021/12/31 03:33:42;;;;;;;12.10;3.15;;;11.70;99.90;;;;;;5004318;28;20445;-89
2021/12/31 03:36:07;;;;;;;11.95;3.30;;;11.80;99.90;;;;;;5014910;28;20059;-88
2021/12/31 03:38:33;;;;;;;10.80;3.25;;;11.80;99.90;;;;;;4977015;28;20170;-88
2021/12/31 03:40:59;;;;;;;11.73;3.15;;;11.80;99.90;;;;;;4994935;28;20070;-88
2021/12/31 03:43:25;;;;;;;12.23;3.22;;;11.80;99.90;;;;;;4979727;28;20061;-89
2021/12/31 03:45:51;;;;;;;11.35;2.80;;;11.80;99.90;;;;;;4982691;28;20068;-88
2021/12/31 03:48:18;;;;;;;14.60;3.42;;;12.40;99.90;;;;;;4994109;28;20044;-88
2021/12/31 03:50:44;;;;;;;13.25;2.88;;;11.70;99.90;;;;;;5013460;28;20045;-89
2021/12/31 03:53:10;;;;;;;10.45;3.22;;;12.20;99.90;;;;;;4986655;28;20105;-88
2021/12/31 03:55:35;;;;;;;13.18;3.83;;;11.70;99.90;;;;;;4976629;28;20419;-88
2021/12/31 03:58:01;;;;;;;14.52;3.15;;;11.80;99.90;;;;;;5014828;28;20053;-88
2021/12/31 04:00:29;;;;;;;14.75;3.10;;;11.80;99.90;;;;;;4981432;28;20080;-89
2021/12/31 04:03:04;;;;;;;12.68;3.33;;;11.90;99.90;;;;;;4990482;28;20057;-89
2021/12/31 04:05:29;;;;;;;12.45;2.90;;;11.80;99.90;;;;;;4980401;28;20044;-88
2021/12/31 04:07:55;;;;;;;12.10;2.58;;;11.80;99.90;;;;;;4998204;28;20037;-88
2021/12/31 04:10:23;;;;;;;11.98;3.33;;;11.80;99.90;;;;;;4994275;28;20037;-87
2021/12/31 04:12:49;;;;;;;11.20;2.50;;;11.80;99.90;;;;;;5014096;28;20490;-89
2021/12/31 04:15:14;;;;;;;16.15;3.45;;;11.90;99.90;;;;;;4994129;28;20045;-89
2021/12/31 04:17:40;;;;;;;11.10;2.88;;;11.80;99.90;;;;;;4981282;28;20068;-87
2021/12/31 04:20:10;;;;;;;12.15;2.90;;;11.80;99.90;;;;;;4997169;28;20050;-89
2021/12/31 04:22:37;;;;;;;12.10;3.38;;;11.80;99.90;;;;;;4996723;28;20042;-88
2021/12/31 04:25:03;;;;;;;9.02;2.70;;;11.80;99.90;;;;;;5015633;28;20044;-88
2021/12/31 04:27:29;;;;;;;11.10;2.75;;;11.80;99.90;;;;;;5008132;28;20025;-88
2021/12/31 04:29:54;;;;;;;12.57;2.90;;;11.80;99.90;;;;;;4982426;28;20443;-88
2021/12/31 04:32:22;;;;;;;9.57;2.53;;;13.00;99.90;;;;;;4964414;28;20120;-91
2021/12/31 04:34:48;;;;;;;12.20;2.70;;;11.50;99.90;;;;;;4979039;28;20037;-87
2021/12/31 04:37:14;;;;;;;10.93;2.92;;;11.90;99.90;;;;;;5001257;28;20135;-87
2021/12/31 04:39:40;;;;;;;11.95;2.75;;;11.90;99.90;;;;;;4990049;28;20084;-88
2021/12/31 04:42:06;;;;;;;13.15;3.08;;;11.90;99.90;;;;;;4989946;28;20149;-88
2021/12/31 04:44:32;;;;;;;13.75;3.60;;;11.90;99.90;;;;;;5012587;28;20045;-87
2021/12/31 04:46:57;;;;;;;9.32;2.80;;;11.90;99.90;;;;;;4979849;28;20124;-87
2021/12/31 04:49:23;;;;;;;15.57;3.00;;;11.90;99.90;;;;;;4978134;28;20040;-87
2021/12/31 04:51:49;;;;;;;14.25;3.17;;;11.90;99.90;;;;;;4985174;28;20148;-88
2021/12/31 04:54:16;;;;;;;9.63;2.75;;;12.20;99.90;;;;;;4995432;28;20045;-88
2021/12/31 04:56:43;;;;;;;10.07;2.50;;;12.00;99.90;;;;;;5007577;28;20041;-88
2021/12/31 04:59:09;;;;;;;11.88;2.80;;;12.10;99.90;;;;;;5012901;28;20046;-89
2021/12/31 05:01:36;;;;;;;10.15;2.60;;;12.10;99.90;;;;;;4995382;28;20033;-88
2021/12/31 05:04:01;;;;;;;12.40;2.80;;;12.10;99.90;;;;;;4980122;28;21010;-89
2021/12/31 05:06:27;;;;;;;10.35;2.58;;;12.10;99.90;;;;;;4963656;28;20046;-89
2021/12/31 05:08:53;;;;;;;11.60;2.60;;;12.10;99.90;;;;;;4994273;28;20033;-87
2021/12/31 05:11:19;;;;;;;10.20;2.40;;;13.00;99.90;;;;;;5008490;28;20038;-88
2021/12/31 05:13:45;;;;;;;9.68;2.70;;;12.00;99.90;;;;;;4992786;28;20495;-87
2021/12/31 05:16:11;;;;;;;10.20;2.50;;;11.90;99.90;;;;;;4979548;28;20498;-89
2021/12/31 05:18:36;;;;;;;10.48;2.80;;;11.90;99.90;;;;;;4988878;28;20045;-88
2021/12/31 05:21:02;;;;;;;9.82;2.70;;;11.90;99.90;;;;;;4979744;28;20155;-86
2021/12/31 05:23:28;;;;;;;11.10;2.83;;;11.90;99.90;;;;;;4996089;28;20033;-87
2021/12/31 05:25:53;;;;;;;13.18;3.03;;;11.90;99.90;;;;;;5004596;28;20049;-87
2021/12/31 05:28:19;;;;;;;10.20;2.60;;;12.70;99.90;;;;;;5013379;28;20044;-89
2021/12/31 05:30:45;;;;;;;15.00;2.95;;;11.80;99.90;;;;;;4976209;28;20042;-87
2021/12/31 05:33:10;;;;;;;9.70;2.80;;;11.70;99.90;;;;;;4996434;28;20048;-87
2021/12/31 05:35:36;;;;;;;9.48;2.75;;;11.80;99.90;;;;;;4996431;28;20470;-88
2021/12/31 05:38:02;;;;;;;10.85;2.75;;;11.70;99.90;;;;;;4967079;28;20417;-88
2021/12/31 05:40:27;;;;;;;8.02;2.50;;;11.70;99.90;;;;;;4978650;28;20560;-88
2021/12/31 05:42:53;;;;;;;9.55;2.80;;;11.70;99.90;;;;;;4995172;28;20037;-88
2021/12/31 05:45:19;;;;;;;10.05;3.03;;;11.70;99.90;;;;;;4996115;28;20049;-88
2021/12/31 05:47:47;;;;;;;8.73;2.80;;;11.80;99.90;;;;;;4996378;28;20515;-87
2021/12/31 05:50:27;;;;;;;8.98;3.00;;;11.70;99.90;;;;;;4978727;28;20457;-88
2021/12/31 05:52:56;;;;;;;9.23;3.08;;;12.70;99.90;;;;;;4981540;28;20034;-87
2021/12/31 05:55:22;;;;;;;8.68;3.00;;;11.80;99.90;;;;;;4996136;28;20047;-88
2021/12/31 05:57:48;;;;;;;10.05;3.10;;;11.80;99.90;;;;;;4983103;28;20384;-88
2021/12/31 06:00:14;;;;;;;10.48;3.20;;;11.80;99.90;;;;;;4970732;28;20064;-88
2021/12/31 06:02:40;;;;;;;9.63;2.95;;;11.80;99.90;;;;;;4980972;28;20036;-89
2021/12/31 06:05:06;;;;;;;10.60;3.10;;;11.80;99.90;;;;;;4983810;28;20407;-87
2021/12/31 06:07:32;;;;;;;10.40;2.90;;;11.80;99.90;;;;;;5011273;28;20099;-88
2021/12/31 06:09:57;;;;;;;10.60;3.13;;;11.80;99.90;;;;;;4979990;28;20538;-88
2021/12/31 06:12:24;;;;;;;7.72;2.90;;;11.80;99.90;;;;;;4980025;28;20029;-88
2021/12/31 06:14:52;;;;;;;13.05;3.20;;;11.80;99.90;;;;;;5004094;28;20175;-87
2021/12/31 06:17:22;;;;;;;9.30;2.83;;;11.80;99.90;;;;;;4969751;28;20398;-87
2021/12/31 06:19:48;;;;;;;8.73;2.80;;;11.90;99.90;;;;;;5011814;28;20421;-89
2021/12/31 06:22:15;;;;;;;10.10;2.88;;;11.90;99.90;;;;;;4999353;28;20053;-87
2021/12/31 06:24:41;;;;;;;8.73;2.92;;;11.90;99.90;;;;;;4966108;28;20044;-88
2021/12/31 06:27:08;;;;;;;8.40;3.10;;;11.90;99.90;;;;;;4999011;28;20041;-88
2021/12/31 06:29:33;;;;;;;9.07;2.90;;;11.90;99.90;;;;;;4997730;28;20417;-88
2021/12/31 06:31:59;;;;;;;8.52;3.00;;;11.90;99.90;;;;;;5014005;28;20050;-89
2021/12/31 06:34:25;;;;;;;9.63;2.83;;;12.00;99.90;;;;;;4980450;28;20046;-89
2021/12/31 06:36:50;;;;;;;8.68;2.88;;;11.90;99.90;;;;;;4997910;28;20033;-89
2021/12/31 06:39:16;;;;;;;9.45;3.03;;;11.90;99.90;;;;;;4967533;28;20552;-89
2021/12/31 06:41:42;;;;;;;10.13;2.78;;;11.90;99.90;;;;;;4982395;28;20037;-88
2021/12/31 06:44:08;;;;;;;8.68;2.90;;;11.80;99.90;;;;;;4981865;28;20033;-86
2021/12/31 06:46:33;;;;;;;10.70;2.95;;;12.80;99.90;;;;;;4965242;28;20051;-89
2021/12/31 06:48:59;;;;;;;9.82;3.03;;;11.80;99.90;;;;;;4965806;28;20125;-88
2021/12/31 06:51:25;;;;;;;7.43;2.70;;;11.80;99.90;;;;;;4980832;28;20131;-87
2021/12/31 06:53:50;;;;;;;9.73;2.70;;;11.80;99.90;;;;;;4977094;28;20044;-88
2021/12/31 06:56:16;;;;;;;8.63;2.50;;;11.80;99.90;;;;;;4996978;28;20041;-87
2021/12/31 06:58:44;;;;;;;8.80;2.83;;;11.80;99.90;;;;;;4990989;28;20045;-87
2021/12/31 07:01:10;;;;;;;8.40;2.47;;;11.80;99.90;;;;;;4992401;28;20044;-88
2021/12/31 07:03:36;;;;;;;9.07;2.88;;;11.80;99.90;;;;;;5012056;28;20101;-87
2021/12/31 07:06:02;;;;;;;9.25;2.63;;;11.80;99.90;;;;;;4976993;28;20056;-88
2021/12/31 07:08:28;;;;;;;8.32;2.42;;;11.80;99.90;;;;;;4994448;28;20069;-87
2021/12/31 07:10:54;;;;;;;7.40;2.30;;;11.90;99.90;;;;;;5005249;28;20079;-87
2021/12/31 07:13:20;;;;;;;8.00;2.40;;;11.90;99.90;;;;;;4979948;28;20073;-87
2021/12/31 07:15:51;;;;;;;10.63;3.13;;;11.80;99.90;;;;;;4997487;28;20076;-87
2021/12/31 07:18:19;;;;;;;7.63;2.55;;;11.80;99.90;;;;;;4989587;28;20129;-88
2021/12/31 07:20:46;;;;;;;9.75;2.60;;;11.90;99.90;;;;;;4995600;28;20069;-87
2021/12/31 07:23:15;;;;;;;9.50;2.50;;;12.00;99.90;;;;;;4996685;28;20116;-85
2021/12/31 07:25:41;;;;;;;9.48;2.78;;;11.80;99.90;;;;;;5010886;28;20033;-88
2021/12/31 07:28:09;;;;;;;8.43;2.60;;;11.80;99.90;;;;;;4987740;28;20363;-88
2021/12/31 07:30:35;;;;;;;7.50;2.25;;;11.80;99.90;;;;;;4997261;28;20037;-87
2021/12/31 07:33:01;;;;;;;10.50;2.63;;;11.80;99.90;;;;;;4995147;28;20117;-89
2021/12/31 07:35:27;;;;;;;7.93;2.40;;;11.80;99.90;;;;;;4992887;28;20602;-88
2021/12/31 07:37:55;;;;;;;7.78;2.40;;;11.70;99.90;;;;;;5008416;28;20041;-87
2021/12/31 07:40:38;;;;;;;9.45;2.72;;;11.80;99.90;;;;;;4991837;28;20109;-88
2021/12/31 07:43:07;;;;;;;7.77;2.10;;;11.80;99.90;;;;;;4997097;28;20037;-87
2021/12/31 07:45:33;;;;;;;7.40;2.38;;;11.70;99.90;;;;;;4991701;28;20569;-87
2021/12/31 07:48:00;;;;;;;8.85;2.65;;;11.70;99.90;;;;;;4977910;28;20114;-89
2021/12/31 07:50:26;;;;;;;6.22;2.33;;;11.60;99.90;;;;;;5014077;28;20064;-89
2021/12/31 07:52:51;;;;;;;8.05;2.70;;;11.70;99.90;;;;;;4981901;28;20119;-88
2021/12/31 07:55:17;;;;;;;7.40;2.38;;;11.70;99.90;;;;;;4998521;28;20033;-87
2021/12/31 07:57:43;;;;;;;8.35;2.33;;;11.70;99.90;;;;;;4986466;28;20030;-88
2021/12/31 08:00:09;;;;;;;8.48;2.47;;;11.80;99.90;;;;;;4982631;28;20033;-89
2021/12/31 08:02:35;;;;;;;7.25;2.38;;;11.70;99.90;;;;;;4999148;28;20046;-88
2021/12/31 08:05:00;;;;;;;8.45;2.35;;;11.80;99.90;;;;;;4991887;28;20037;-88
2021/12/31 08:07:26;;;;;;;5.78;2.17;;;11.80;99.90;;;;;;4998796;28;20042;-87
2021/12/31 08:09:52;;;;;;;8.05;2.40;;;11.80;99.90;;;;;;4999093;28;20105;-89
2021/12/31 08:12:18;;;;;;;7.85;2.50;;;11.80;99.90;;;;;;4982404;28;20131;-90
2021/12/31 08:14:43;;;;;;;7.05;2.30;;;11.80;99.90;;;;;;4996382;28;20072;-88
2021/12/31 08:17:09;;;;;;;9.20;2.40;;;11.80;99.90;;;;;;4961733;28;20037;-89
2021/12/31 08:19:35;;;;;;;8.75;2.50;;;11.80;99.90;;;;;;4976903;28;20041;-88
2021/12/31 08:22:01;;;;;;;7.38;2.50;;;11.80;99.90;;;;;;4981590;28;20080;-88
2021/12/31 08:24:26;;;;;;;7.97;2.33;;;11.80;99.90;;;;;;4981413;28;20045;-87
2021/12/31 08:26:52;;;;;;;8.68;2.60;;;11.70;99.90;;;;;;5008179;28;20134;-88
2021/12/31 08:29:18;;;;;;;7.20;2.30;;;11.80;99.90;;;;;;4980928;28;20041;-90
2021/12/31 08:31:44;;;;;;;9.32;2.25;;;11.70;99.90;;;;;;4969299;28;20440;-90
2021/12/31 08:34:11;;;;;;;7.38;2.20;;;11.80;99.90;;;;;;5004531;28;20168;-88
2021/12/31 08:36:37;;;;;;;9.60;2.72;;;11.80;99.90;;;;;;5013972;28;20106;-89
2021/12/31 08:39:05;;;;;;;6.40;2.17;;;11.80;99.90;;;;;;4989773;28;20552;-89
2021/12/31 08:41:31;;;;;;;8.93;2.50;;;11.80;99.90;;;;;;4985903;28;20127;-89
2021/12/31 08:43:57;;;;;;;8.88;2.92;;;11.90;99.90;;;;;;5014689;28;20034;-89
2021/12/31 08:46:23;;;;;;;10.25;2.78;;;11.90;99.90;;;;;;4970122;28;20037;-87
2021/12/31 08:48:49;;;;;;;7.30;2.50;;;11.90;99.90;;;;;;4993953;28;20111;-88
2021/12/31 08:51:15;;;;;;;7.25;2.55;;;11.90;99.90;;;;;;4977160;28;20052;-89
2021/12/31 08:53:41;;;;;;;8.52;2.58;;;12.00;99.90;;;;;;4993363;28;20046;-88
2021/12/31 08:56:07;;;;;;;8.48;2.83;;;11.90;99.90;;;;;;4978183;28;20033;-87
2021/12/31 08:58:33;;;;;;;8.90;2.63;;;11.90;99.90;;;;;;5013736;28;20068;-89
2021/12/31 09:00:59;;;;;;;7.57;2.53;;;11.90;99.90;;;;;;4979970;28;20045;-87
2021/12/31 09:03:25;;;;;;;8.75;2.83;;;11.90;99.90;;;;;;4985264;28;20053;-88
2021/12/31 09:05:50;;;;;;;8.43;2.80;;;12.40;99.90;;;;;;4975903;28;20099;-89
2021/12/31 09:08:16;;;;;;;9.50;2.65;;;12.00;99.90;;;;;;5012444;28;20044;-89
2021/12/31 09:10:42;;;;;;;8.80;2.90;;;12.00;99.90;;;;;;5000666;28;20041;-88
2021/12/31 09:13:08;;;;;;;9.50;3.08;;;11.90;99.90;;;;;;5009651;28;20045;-88
2021/12/31 09:15:34;;;;;;;9.45;2.78;;;11.90;99.90;;;;;;4970019;28;20038;-89
2021/12/31 09:17:59;;;;;;;8.57;3.03;;;11.90;99.90;;;;;;4970073;28;20115;-88
2021/12/31 09:20:26;;;;;;;7.90;2.72;;;11.90;99.90;;;;;;4998144;28;20341;-88
2021/12/31 09:22:52;;;;;;;8.20;2.85;;;11.90;99.90;;;;;;4976462;28;20042;-87
2021/12/31 09:25:18;;;;;;;8.70;2.70;;;11.90;99.90;;;;;;4958167;28;20487;-87
2021/12/31 09:27:44;;;;;;;9.25;2.90;;;11.90;99.90;;;;;;4939127;28;20073;-88
2021/12/31 09:30:10;;;;;;;9.70;3.00;;;11.90;99.90;;;;;;4956774;28;20039;-88
2021/12/31 09:32:36;;;;;;;8.35;3.03;;;11.90;99.90;;;;;;4972225;28;20436;-88
2021/12/31 09:35:02;;;;;;;9.90;2.92;;;11.90;99.90;;;;;;4990696;28;20052;-89
2021/12/31 09:37:28;;;;;;;7.53;2.65;;;11.90;99.90;;;;;;4942242;28;20042;-88
2021/12/31 09:39:54;;;;;;;9.05;2.97;;;11.90;99.90;;;;;;4954375;28;20045;-90
2021/12/31 09:42:19;;;;;;;8.40;2.97;;;11.90;99.90;;;;;;4986310;28;20046;-88
2021/12/31 09:44:47;;;;;;;9.48;3.00;;;11.90;99.90;;;;;;4974151;28;20042;-88
2021/12/31 09:47:13;;;;;;;9.68;3.17;;;11.90;99.90;;;;;;4972065;28;20510;-88
2021/12/31 09:49:40;;;;;;;8.70;2.92;;;11.90;99.90;;;;;;4974050;28;20117;-88
2021/12/31 09:52:10;;;;;;;9.30;3.30;;;12.10;99.90;;;;;;4977697;28;20042;-89
2021/12/31 09:54:49;;;;;;;9.45;2.78;;;12.80;99.90;;;;;;4990006;28;20060;-89
2021/12/31 09:57:20;;;;;;;9.82;3.08;;;11.90;99.90;;;;;;4986452;28;20045;-88
2021/12/31 09:59:47;;;;;;;10.38;3.15;;;11.90;99.90;;;;;;4991743;28;20042;-90
2021/12/31 10:02:15;;;;;;;8.50;2.83;;;11.90;99.90;;;;;;4973935;28;20117;-89
2021/12/31 10:04:53;;;;;;;10.20;3.00;;;11.90;99.90;;;;;;4977607;28;20107;-90
2021/12/31 10:07:21;;;;;;;13.00;3.15;;;11.90;99.90;;;;;;4993083;28;20045;-88
2021/12/31 10:10:15;;;;;;;9.23;2.88;;;11.90;99.90;;;;;;4980384;28;20050;-89
2021/12/31 10:12:58;;;;;;;10.50;3.08;;;11.90;99.90;;;;;;4988965;28;20399;-89
2021/12/31 10:15:25;;;;;;;10.55;3.33;;;11.80;99.90;;;;;;4974531;28;20139;-88
2021/12/31 10:17:51;;;;;;;10.23;3.15;;;11.80;99.90;;;;;;4973284;28;20049;-90
2021/12/31 10:20:19;;;;;;;8.98;2.90;;;11.80;99.90;;;;;;4966235;28;20078;-88
2021/12/31 10:22:46;;;;;;;9.10;2.92;;;11.80;99.90;;;;;;4974025;28;20046;-89
2021/12/31 10:25:20;;;;;;;10.80;3.03;;;11.70;99.90;;;;;;4987721;28;20041;-90
2021/12/31 10:27:46;;;;;;;9.55;2.90;;;11.70;99.90;;;;;;4988486;28;20041;-88
2021/12/31 10:30:11;;;;;;;8.73;2.92;;;11.70;99.90;;;;;;4985716;28;20038;-88
2021/12/31 10:32:40;;;;;;;12.88;3.67;;;13.40;99.90;;;;;;4957595;28;20518;-89
2021/12/31 10:35:11;;;;;;;8.88;3.00;;;11.70;99.90;;;;;;4976325;28;20116;-89
2021/12/31 10:37:50;;;;;;;9.88;3.15;;;11.60;99.90;;;;;;4991506;28;20700;-89
2021/12/31 10:40:30;;;;;;;9.93;2.97;;;11.60;99.90;;;;;;4979405;28;20092;-89
2021/12/31 10:43:17;;;;;;;10.02;3.55;;;11.60;99.90;;;;;;4963267;28;20124;-88
2021/12/31 10:45:56;;;;;;;10.52;3.92;;;11.60;99.90;;;;;;4998916;28;20414;-88
2021/12/31 10:48:40;;;;;;;8.55;2.88;;;11.50;99.90;;;;;;4978264;28;20041;-88
2021/12/31 10:51:07;;;;;;;10.60;3.60;;;11.50;99.90;;;;;;4986203;28;20428;-87
2021/12/31 10:53:34;;;;;;;10.90;3.83;;;11.50;99.90;;;;;;4976501;28;20486;-89
2021/12/31 10:56:14;;;;;;;8.93;3.15;;;11.50;99.90;;;;;;4961197;28;20046;-88
2021/12/31 10:58:45;;;;;;;9.27;3.40;;;11.50;99.90;;;;;;4978813;28;20061;-88
2021/12/31 11:01:15;;;;;;;8.65;3.22;;;11.60;99.90;;;;;;4978910;28;20038;-89
2021/12/31 11:03:42;;;;;;;9.00;3.13;;;11.50;99.90;;;;;;4957962;28;20046;-88
2021/12/31 11:06:12;;;;;;;9.30;3.20;;;11.40;99.90;;;;;;4979267;28;20033;-88
2021/12/31 11:08:42;;;;;;;10.65;3.60;;;11.40;99.90;;;;;;4995289;28;20122;-89
2021/12/31 11:11:08;;;;;;;8.68;3.15;;;11.40;99.90;;;;;;4991158;28;20065;-88
2021/12/31 11:13:34;;;;;;;10.23;3.30;;;11.40;99.90;;;;;;4947832;28;20120;-88
2021/12/31 11:16:00;;;;;;;9.27;3.60;;;11.40;99.90;;;;;;4987629;28;20179;-89
2021/12/31 11:18:26;;;;;;;10.32;3.30;;;12.20;99.90;;;;;;4977871;28;20068;-88
2021/12/31 11:21:02;;;;;;;10.95;3.70;;;11.40;99.90;;;;;;4965776;28;20052;-87
2021/12/31 11:23:31;;;;;;;10.85;3.47;;;11.40;99.90;;;;;;4970607;28;20159;-88
2021/12/31 11:26:04;;;;;;;11.25;3.90;;;11.40;99.90;;;;;;5008743;28;20033;-89
2021/12/31 11:28:35;;;;;;;8.15;3.40;;;11.40;99.90;;;;;;4978072;28;20558;-88
2021/12/31 11:31:22;;;;;;;10.55;3.58;;;11.40;99.90;;;;;;4987264;28;20042;-89
2021/12/31 11:34:00;;;;;;;10.50;3.60;;;11.40;99.90;;;;;;5007329;28;20509;-88
2021/12/31 11:36:42;;;;;;;13.30;4.85;;;11.40;99.90;;;;;;5010708;28;20388;-88
2021/12/31 11:39:22;;;;;;;10.47;3.87;;;11.40;99.90;;;;;;4978576;28;20084;-88
2021/12/31 11:41:48;;;;;;;12.10;4.32;;;11.40;99.90;;;;;;5009429;28;20065;-87
2021/12/31 11:44:15;;;;;;;12.27;4.05;;;11.40;99.90;;;;;;4993817;28;20034;-87
2021/12/31 11:46:43;;;;;;;9.00;3.65;;;11.30;99.90;;;;;;4961825;28;20034;-89
2021/12/31 11:49:11;;;;;;;9.75;4.03;;;11.30;99.90;;;;;;4972940;28;20325;-87
2021/12/31 11:51:55;;;;;;;10.07;3.85;;;11.30;99.90;;;;;;4993128;28;20430;-87
2021/12/31 11:54:21;;;;;;;10.65;4.10;;;11.20;99.90;;;;;;4989054;28;20046;-87
2021/12/31 11:57:00;;;;;;;11.40;4.07;;;11.20;99.90;;;;;;4971442;28;20038;-87
2021/12/31 11:59:26;;;;;;;12.90;4.68;;;11.20;99.90;;;;;;4976204;28;20055;-88
2021/12/31 12:02:04;;;;;;;13.63;4.50;;;11.20;99.90;;;;;;4955018;28;20403;-88
2021/12/31 12:04:32;;;;;;;9.82;4.00;;;11.20;99.90;;;;;;4989310;28;20042;-88
2021/12/31 12:07:04;;;;;;;12.57;4.25;;;11.20;99.90;;;;;;4973680;28;20038;-88
2021/12/31 12:09:36;;;;;;;11.63;3.97;;;11.20;99.90;;;;;;4977904;28;20065;-87
2021/12/31 12:12:10;;;;;;;10.63;3.97;;;11.20;99.90;;;;;;4988060;28;20046;-88
2021/12/31 12:14:47;;;;;;;11.50;4.13;;;11.20;99.90;;;;;;4992960;28;20033;-88
2021/12/31 12:17:16;;;;;;;11.52;3.85;;;11.10;99.90;;;;;;4972019;28;20030;-87
2021/12/31 12:19:51;;;;;;;8.57;3.30;;;11.10;99.90;;;;;;4955938;28;20097;-86
2021/12/31 12:22:28;;;;;;;9.48;3.78;;;11.10;99.90;;;;;;4970104;28;20499;-87
2021/12/31 12:24:57;;;;;;;10.55;3.83;;;11.10;99.90;;;;;;4993758;28;20029;-87
2021/12/31 12:27:24;;;;;;;9.07;3.42;;;11.10;99.90;;;;;;4966848;28;20037;-88
2021/12/31 12:29:51;;;;;;;9.43;3.58;;;11.10;99.90;;;;;;5001255;28;20161;-86
2021/12/31 12:32:29;;;;;;;11.43;3.28;;;11.10;99.90;;;;;;4985471;28;20092;-87
2021/12/31 12:34:55;;;;;;;9.70;3.72;;;11.10;99.90;;;;;;4975496;28;20069;-87
2021/12/31 12:37:28;;;;;;;8.23;3.08;;;11.00;99.90;;;;;;4977959;28;20557;-87
2021/12/31 12:40:03;;;;;;;10.30;3.65;;;11.10;99.90;;;;;;4994094;28;20053;-88
2021/12/31 12:42:28;;;;;;;8.00;3.33;;;11.10;99.90;;;;;;5001059;28;20076;-88
2021/12/31 12:45:06;;;;;;;8.63;3.30;;;11.10;99.90;;;;;;4980175;28;20503;-88
2021/12/31 12:47:33;;;;;;;8.18;3.38;;;11.10;99.90;;;;;;4978449;28;20502;-89